createdAt,value
2019-03-26T00:12:59.868Z,0.00
2019-03-26T00:13:57.588Z,0.00
2019-03-26T00:15:49.990Z,0.00
2019-03-26T00:16:49.687Z,0.00
2019-03-26T00:17:49.630Z,0.00
2019-03-26T00:18:49.626Z,0.00
2019-03-26T00:19:49.831Z,0.00
2019-03-26T00:20:49.605Z,0.00
2019-03-26T00:21:49.597Z,0.00
2019-03-26T00:22:49.584Z,0.00
2019-03-26T00:23:49.575Z,0.00
2019-03-26T00:24:49.569Z,0.00
2019-03-26T00:25:49.558Z,0.00
2019-03-26T00:26:49.555Z,0.00
2019-03-26T00:27:49.537Z,0.00
2019-03-26T00:28:49.537Z,0.00
2019-03-26T00:29:49.520Z,0.00
2019-03-26T00:30:49.511Z,0.00
2019-03-26T00:31:49.509Z,0.00
2019-03-26T00:32:49.488Z,0.00
2019-03-26T00:33:49.485Z,0.00
2019-03-26T00:34:49.470Z,0.00
2019-03-26T00:35:49.464Z,0.00
2019-03-26T00:36:49.451Z,0.00
2019-03-26T00:37:49.442Z,0.00
2019-03-26T00:38:49.583Z,0.00
2019-03-26T00:39:49.426Z,0.00
2019-03-26T00:40:49.416Z,0.00
2019-03-26T00:41:49.406Z,0.00
2019-03-26T00:42:49.396Z,0.00
2019-03-26T00:43:49.386Z,0.00
2019-03-26T00:44:49.391Z,0.00
2019-03-26T00:45:49.365Z,0.00
2019-03-26T00:46:49.353Z,0.00
2019-03-26T00:47:49.344Z,0.00
2019-03-26T00:48:49.343Z,0.00
2019-03-26T00:49:49.332Z,0.00
2019-03-26T00:50:49.319Z,0.00
2019-03-26T00:51:49.311Z,0.00
2019-03-26T00:52:49.314Z,0.00
2019-03-26T00:53:49.293Z,0.00
2019-03-26T00:54:49.295Z,0.00
2019-03-26T00:55:49.274Z,0.00
2019-03-26T00:56:49.262Z,0.00
2019-03-26T00:57:49.249Z,0.00
2019-03-26T00:58:49.262Z,0.00
2019-03-26T00:59:49.254Z,0.00
2019-03-26T01:00:49.244Z,0.00
2019-03-26T01:01:49.224Z,0.00
2019-03-26T01:02:49.211Z,0.00
2019-03-26T01:03:49.209Z,0.00
2019-03-26T01:04:49.189Z,0.00
2019-03-26T01:05:49.182Z,0.00
2019-03-26T01:06:49.184Z,0.00
2019-03-26T01:07:49.160Z,0.00
2019-03-26T01:08:49.155Z,0.00
2019-03-26T01:09:49.145Z,0.00
2019-03-26T01:10:49.134Z,0.00
2019-03-26T01:11:49.129Z,0.00
2019-03-26T01:12:49.113Z,0.00
2019-03-26T01:13:49.112Z,0.00
2019-03-26T01:14:49.096Z,0.00
2019-03-26T01:15:49.087Z,0.00
2019-03-26T01:16:49.080Z,0.00
2019-03-26T01:17:49.071Z,0.00
2019-03-26T01:18:49.057Z,0.00
2019-03-26T01:19:49.051Z,0.00
2019-03-26T01:20:49.045Z,0.00
2019-03-26T01:21:49.023Z,0.00
2019-03-26T01:22:49.038Z,0.00
2019-03-26T01:23:49.012Z,0.00
2019-03-26T01:24:49.050Z,0.00
2019-03-26T01:25:48.995Z,0.00
2019-03-26T01:26:48.987Z,0.00
2019-03-26T01:27:48.975Z,0.00
2019-03-26T01:28:48.965Z,0.00
2019-03-26T01:29:48.954Z,0.00
2019-03-26T01:30:48.944Z,0.00
2019-03-26T01:31:48.938Z,0.00
2019-03-26T01:32:48.930Z,0.00
2019-03-26T01:33:48.923Z,0.00
2019-03-26T01:34:48.909Z,0.00
2019-03-26T01:35:48.894Z,0.00
2019-03-26T01:36:48.892Z,0.00
2019-03-26T01:37:48.880Z,0.00
2019-03-26T01:38:48.897Z,0.00
2019-03-26T01:39:48.860Z,0.00
2019-03-26T01:40:48.853Z,0.00
2019-03-26T01:41:48.841Z,0.00
2019-03-26T01:42:48.826Z,0.00
2019-03-26T01:43:48.820Z,0.00
2019-03-26T01:44:48.815Z,0.00
2019-03-26T01:45:48.806Z,0.00
2019-03-26T01:46:48.804Z,0.00
2019-03-26T01:47:48.785Z,0.00
2019-03-26T01:48:48.781Z,0.00
2019-03-26T01:49:48.765Z,0.00
2019-03-26T01:50:48.750Z,0.00
2019-03-26T01:51:48.766Z,0.00
2019-03-26T01:52:48.737Z,0.00
2019-03-26T01:53:48.721Z,0.00
2019-03-26T01:54:48.720Z,0.00
2019-03-26T01:55:48.789Z,0.00
2019-03-26T01:56:48.705Z,0.00
2019-03-26T01:57:48.701Z,0.00
2019-03-26T01:58:48.694Z,0.00
2019-03-26T01:59:48.671Z,0.00
2019-03-26T02:00:48.663Z,0.00
2019-03-26T02:01:48.651Z,0.00
2019-03-26T02:02:48.645Z,0.00
2019-03-26T02:03:48.651Z,0.00
2019-03-26T02:04:59.193Z,0.00
2019-03-26T02:05:48.619Z,0.00
2019-03-26T02:06:48.613Z,0.00
2019-03-26T02:07:48.592Z,0.00
2019-03-26T02:08:48.605Z,0.00
2019-03-26T02:09:48.585Z,0.00
2019-03-26T02:10:48.593Z,0.00
2019-03-26T02:11:48.574Z,0.00
2019-03-26T02:12:48.849Z,0.00
2019-03-26T02:13:48.550Z,0.00
2019-03-26T02:14:48.528Z,0.00
2019-03-26T02:15:48.540Z,0.00
2019-03-26T02:16:48.526Z,0.00
2019-03-26T02:17:48.503Z,0.00
2019-03-26T02:18:48.494Z,0.00
2019-03-26T02:19:48.485Z,0.00
2019-03-26T02:20:48.476Z,0.00
2019-03-26T02:21:48.480Z,0.00
2019-03-26T02:22:48.465Z,0.00
2019-03-26T02:23:48.445Z,0.00
2019-03-26T02:24:48.439Z,0.00
2019-03-26T02:25:48.426Z,0.00
2019-03-26T02:26:48.417Z,0.00
2019-03-26T02:27:48.414Z,0.00
2019-03-26T02:28:48.400Z,0.00
2019-03-26T02:29:48.392Z,0.00
2019-03-26T02:30:48.385Z,0.00
2019-03-26T02:31:48.381Z,0.00
2019-03-26T02:32:48.369Z,0.00
2019-03-26T02:33:48.356Z,0.00
2019-03-26T02:34:48.342Z,0.00
2019-03-26T02:35:48.337Z,0.00
2019-03-26T02:36:48.328Z,0.00
2019-03-26T02:37:48.319Z,0.00
2019-03-26T02:38:48.310Z,0.00
2019-03-26T02:39:48.302Z,0.00
2019-03-26T02:40:48.293Z,0.00
2019-03-26T02:41:48.275Z,0.00
2019-03-26T02:42:48.279Z,0.00
2019-03-26T02:43:48.262Z,0.00
2019-03-26T02:44:48.248Z,0.00
2019-03-26T02:45:48.242Z,0.00
2019-03-26T02:46:48.243Z,0.00
2019-03-26T02:47:48.222Z,0.00
2019-03-26T02:48:48.216Z,0.00
2019-03-26T02:49:48.199Z,0.00
2019-03-26T02:50:48.193Z,0.00
2019-03-26T02:51:48.196Z,0.00
2019-03-26T02:52:48.182Z,0.00
2019-03-26T02:53:48.164Z,0.00
2019-03-26T02:54:48.156Z,0.00
2019-03-26T02:55:48.150Z,0.00
2019-03-26T02:56:48.140Z,0.00
2019-03-26T02:57:48.129Z,0.00
2019-03-26T02:58:48.121Z,0.00
2019-03-26T02:59:48.110Z,0.00
2019-03-26T03:00:48.119Z,0.00
2019-03-26T03:01:48.093Z,0.00
2019-03-26T03:02:48.083Z,0.00
2019-03-26T03:03:48.066Z,0.00
2019-03-26T03:04:48.077Z,0.00
2019-03-26T03:05:48.047Z,0.00
2019-03-26T03:06:48.037Z,0.00
2019-03-26T03:07:48.033Z,0.00
2019-03-26T03:08:48.035Z,0.00
2019-03-26T03:09:48.018Z,0.00
2019-03-26T03:10:48.014Z,0.00
2019-03-26T03:11:47.993Z,0.00
2019-03-26T03:12:47.981Z,0.00
2019-03-26T03:13:47.968Z,0.00
2019-03-26T03:14:47.987Z,0.00
2019-03-26T03:15:47.971Z,0.00
2019-03-26T03:16:47.959Z,0.00
2019-03-26T03:17:47.948Z,0.00
2019-03-26T03:18:47.919Z,0.00
2019-03-26T03:19:47.937Z,0.00
2019-03-26T03:20:47.907Z,0.00
2019-03-26T03:21:47.914Z,0.00
2019-03-26T03:22:47.895Z,0.00
2019-03-26T03:23:47.880Z,0.00
2019-03-26T03:24:47.865Z,0.00
2019-03-26T03:25:47.864Z,0.00
2019-03-26T03:26:47.843Z,0.00
2019-03-26T03:27:47.854Z,0.00
2019-03-26T03:28:47.837Z,0.00
2019-03-26T03:29:47.816Z,0.00
2019-03-26T03:30:47.813Z,0.00
2019-03-26T03:31:47.805Z,0.00
2019-03-26T03:32:47.823Z,0.00
2019-03-26T03:33:47.787Z,0.00
2019-03-26T03:34:47.806Z,0.00
2019-03-26T03:35:52.708Z,0.00
2019-03-26T03:36:47.760Z,0.00
2019-03-26T03:37:47.761Z,0.00
2019-03-26T03:38:47.754Z,0.00
2019-03-26T03:39:47.727Z,0.00
2019-03-26T03:40:47.725Z,0.00
2019-03-26T03:41:47.715Z,0.00
2019-03-26T03:42:47.711Z,0.00
2019-03-26T03:43:47.705Z,0.00
2019-03-26T03:44:47.673Z,0.00
2019-03-26T03:45:47.669Z,0.00
2019-03-26T03:46:47.666Z,0.00
2019-03-26T03:47:47.641Z,0.00
2019-03-26T03:48:47.655Z,0.00
2019-03-26T03:49:47.627Z,0.00
2019-03-26T03:50:47.618Z,0.00
2019-03-26T03:51:47.630Z,0.00
2019-03-26T03:52:47.604Z,0.00
2019-03-26T03:53:47.591Z,0.00
2019-03-26T03:54:47.594Z,0.00
2019-03-26T03:55:47.572Z,0.00
2019-03-26T03:56:47.564Z,0.00
2019-03-26T03:57:47.555Z,0.00
2019-03-26T03:58:47.564Z,0.00
2019-03-26T03:59:47.533Z,0.00
2019-03-26T04:00:47.533Z,0.00
2019-03-26T04:01:47.512Z,0.00
2019-03-26T04:02:47.504Z,0.00
2019-03-26T04:03:47.504Z,0.00
2019-03-26T04:04:47.501Z,0.00
2019-03-26T04:05:47.501Z,0.00
2019-03-26T04:06:47.468Z,0.00
2019-03-26T04:07:47.461Z,0.00
2019-03-26T04:08:47.559Z,0.00
2019-03-26T04:09:47.437Z,0.00
2019-03-26T04:10:47.437Z,0.00
2019-03-26T04:11:47.429Z,0.00
2019-03-26T04:12:47.413Z,0.00
2019-03-26T04:13:47.404Z,0.00
2019-03-26T04:14:47.401Z,0.00
2019-03-26T04:15:47.375Z,0.00
2019-03-26T04:16:47.377Z,0.00
2019-03-26T04:17:47.355Z,0.00
2019-03-26T04:18:47.379Z,0.00
2019-03-26T04:19:47.344Z,0.00
2019-03-26T04:20:47.334Z,0.00
2019-03-26T04:21:47.318Z,0.00
2019-03-26T04:22:47.314Z,0.00
2019-03-26T04:23:47.321Z,0.00
2019-03-26T04:24:47.293Z,0.00
2019-03-26T04:25:47.294Z,0.00
2019-03-26T04:26:47.276Z,0.00
2019-03-26T04:27:47.296Z,0.00
2019-03-26T04:28:47.263Z,0.00
2019-03-26T04:29:47.261Z,0.00
2019-03-26T04:30:47.239Z,0.00
2019-03-26T04:31:47.245Z,0.00
2019-03-26T04:32:47.220Z,0.00
2019-03-26T04:33:47.212Z,0.00
2019-03-26T04:34:47.210Z,0.00
2019-03-26T04:35:47.190Z,0.00
2019-03-26T04:36:47.183Z,0.00
2019-03-26T04:37:47.167Z,0.00
2019-03-26T04:38:47.166Z,0.00
2019-03-26T04:39:47.150Z,0.00
2019-03-26T04:40:47.140Z,0.00
2019-03-26T04:41:47.128Z,0.00
2019-03-26T04:42:47.135Z,0.00
2019-03-26T04:43:47.110Z,0.00
2019-03-26T04:44:47.117Z,0.00
2019-03-26T04:45:47.094Z,0.00
2019-03-26T04:46:47.094Z,0.00
2019-03-26T04:47:47.076Z,0.00
2019-03-26T04:48:47.065Z,0.00
2019-03-26T04:49:47.056Z,0.00
2019-03-26T04:50:47.042Z,0.00
2019-03-26T04:51:47.044Z,0.00
2019-03-26T04:52:47.030Z,0.00
2019-03-26T04:53:47.016Z,0.00
2019-03-26T04:54:47.020Z,0.00
2019-03-26T04:55:47.000Z,0.00
2019-03-26T04:56:46.987Z,0.00
2019-03-26T04:57:46.985Z,0.00
2019-03-26T04:58:46.976Z,0.00
2019-03-26T04:59:46.962Z,0.00
2019-03-26T05:00:46.947Z,0.00
2019-03-26T05:01:46.944Z,4.00
2019-03-26T05:02:46.931Z,4.00
2019-03-26T05:03:46.938Z,0.00
2019-03-26T05:04:46.917Z,4.00
2019-03-26T05:05:46.907Z,4.00
2019-03-26T05:06:46.892Z,4.00
2019-03-26T05:07:46.887Z,4.00
2019-03-26T05:08:46.883Z,8.00
2019-03-26T05:09:46.865Z,8.00
2019-03-26T05:10:49.226Z,8.00
2019-03-26T05:11:46.843Z,8.00
2019-03-26T05:12:46.840Z,8.00
2019-03-26T05:13:46.824Z,12.00
2019-03-26T05:14:46.812Z,16.00
2019-03-26T05:15:46.808Z,12.00
2019-03-26T05:16:46.803Z,20.00
2019-03-26T05:17:46.798Z,24.00
2019-03-26T05:18:46.795Z,28.00
2019-03-26T05:19:46.766Z,28.00
2019-03-26T05:20:46.765Z,32.00
2019-03-26T05:21:46.756Z,32.00
2019-03-26T05:22:46.740Z,32.00
2019-03-26T05:23:46.723Z,36.00
2019-03-26T05:24:46.720Z,40.00
2019-03-26T05:25:46.712Z,44.00
2019-03-26T05:26:46.702Z,44.00
2019-03-26T05:27:46.697Z,48.00
2019-03-26T05:28:46.687Z,56.00
2019-03-26T05:29:46.676Z,56.00
2019-03-26T05:30:46.678Z,64.00
2019-03-26T05:31:46.649Z,68.00
2019-03-26T05:32:46.650Z,76.00
2019-03-26T05:33:46.638Z,80.00
2019-03-26T05:34:46.625Z,84.00
2019-03-26T05:35:46.619Z,88.00
2019-03-26T05:36:51.457Z,92.00
2019-03-26T05:37:46.597Z,100.00
2019-03-26T05:38:46.591Z,108.00
2019-03-26T05:39:46.584Z,124.00
2019-03-26T05:40:46.574Z,136.00
2019-03-26T05:41:46.565Z,144.00
2019-03-26T05:42:46.564Z,140.00
2019-03-26T05:43:46.548Z,144.00
2019-03-26T05:44:46.535Z,140.00
2019-03-26T05:45:46.523Z,148.00
2019-03-26T05:46:46.514Z,164.00
2019-03-26T05:47:46.508Z,184.00
2019-03-26T05:48:46.507Z,200.00
2019-03-26T05:49:46.490Z,208.00
2019-03-26T05:50:46.479Z,212.00
2019-03-26T05:51:46.470Z,208.00
2019-03-26T05:52:46.462Z,220.00
2019-03-26T05:53:46.450Z,248.00
2019-03-26T05:54:46.452Z,268.00
2019-03-26T05:55:46.427Z,292.00
2019-03-26T05:56:46.422Z,296.00
2019-03-26T05:57:47.345Z,280.00
2019-03-26T05:58:46.402Z,264.00
2019-03-26T05:59:46.409Z,268.00
2019-03-26T06:00:46.384Z,292.00
2019-03-26T06:01:46.374Z,328.00
2019-03-26T06:02:46.362Z,356.00
2019-03-26T06:03:46.354Z,400.00
2019-03-26T06:04:46.345Z,388.00
2019-03-26T06:05:46.332Z,360.00
2019-03-26T06:06:46.322Z,328.00
2019-03-26T06:07:46.340Z,336.00
2019-03-26T06:08:46.314Z,372.00
2019-03-26T06:09:46.295Z,384.00
2019-03-26T06:10:46.329Z,360.00
2019-03-26T06:11:46.284Z,332.00
2019-03-26T06:12:46.273Z,316.00
2019-03-26T06:13:46.266Z,332.00
2019-03-26T06:14:46.263Z,344.00
2019-03-26T06:15:46.245Z,340.00
2019-03-26T06:16:46.228Z,340.00
2019-03-26T06:17:46.234Z,360.00
2019-03-26T06:18:46.214Z,368.00
2019-03-26T06:19:46.209Z,352.00
2019-03-26T06:20:46.195Z,340.00
2019-03-26T06:21:46.199Z,336.00
2019-03-26T06:22:46.188Z,328.00
2019-03-26T06:23:46.181Z,316.00
2019-03-26T06:24:46.172Z,340.00
2019-03-26T06:25:46.149Z,376.00
2019-03-26T06:26:46.143Z,380.00
2019-03-26T06:27:46.129Z,360.00
2019-03-26T06:28:46.128Z,368.00
2019-03-26T06:29:46.109Z,392.00
2019-03-26T06:30:46.111Z,416.00
2019-03-26T06:31:46.108Z,436.00
2019-03-26T06:32:46.088Z,460.00
2019-03-26T06:33:46.070Z,492.00
2019-03-26T06:34:46.067Z,500.00
2019-03-26T06:35:46.055Z,480.00
2019-03-26T06:36:46.053Z,456.00
2019-03-26T06:37:46.043Z,472.00
2019-03-26T06:38:46.039Z,520.00
2019-03-26T06:39:46.019Z,568.00
2019-03-26T06:40:46.022Z,612.00
2019-03-26T06:41:45.998Z,640.00
2019-03-26T06:42:45.994Z,660.00
2019-03-26T06:43:45.980Z,696.00
2019-03-26T06:44:45.971Z,732.00
2019-03-26T06:45:45.959Z,788.00
2019-03-26T06:46:45.953Z,848.00
2019-03-26T06:47:45.949Z,904.00
2019-03-26T06:48:45.936Z,928.00
2019-03-26T06:49:45.929Z,944.00
2019-03-26T06:50:45.917Z,944.00
2019-03-26T06:51:45.902Z,916.00
2019-03-26T06:52:45.907Z,932.00
2019-03-26T06:53:45.888Z,976.00
2019-03-26T06:54:45.878Z,948.00
2019-03-26T06:55:45.871Z,920.00
2019-03-26T06:56:45.864Z,940.00
2019-03-26T06:57:45.851Z,932.00
2019-03-26T06:58:45.846Z,868.00
2019-03-26T06:59:45.831Z,856.00
2019-03-26T07:00:45.829Z,948.00
2019-03-26T07:01:45.812Z,1004.00
2019-03-26T07:02:45.808Z,1108.00
2019-03-26T07:03:45.791Z,1296.00
2019-03-26T07:04:45.796Z,1448.00
2019-03-26T07:05:45.776Z,1448.00
2019-03-26T07:06:45.778Z,1344.00
2019-03-26T07:07:45.764Z,1216.00
2019-03-26T07:08:45.754Z,1136.00
2019-03-26T07:09:45.750Z,1120.00
2019-03-26T07:10:45.740Z,1120.00
2019-03-26T07:11:45.739Z,1092.00
2019-03-26T07:12:45.717Z,1064.00
2019-03-26T07:13:45.713Z,1084.00
2019-03-26T07:14:45.700Z,1100.00
2019-03-26T07:15:45.694Z,1144.00
2019-03-26T07:16:45.678Z,1224.00
2019-03-26T07:17:45.670Z,1304.00
2019-03-26T07:18:45.663Z,1428.00
2019-03-26T07:19:45.656Z,1580.00
2019-03-26T07:20:45.647Z,1640.00
2019-03-26T07:21:49.765Z,1764.00
2019-03-26T07:22:45.628Z,1888.00
2019-03-26T07:23:45.621Z,1948.00
2019-03-26T07:24:45.615Z,1896.00
2019-03-26T07:25:45.621Z,1768.00
2019-03-26T07:26:45.584Z,1700.00
2019-03-26T07:27:45.585Z,1700.00
2019-03-26T07:28:45.576Z,1780.00
2019-03-26T07:29:45.566Z,1900.00
2019-03-26T07:30:45.555Z,2156.00
2019-03-26T07:31:45.553Z,2348.00
2019-03-26T07:32:45.541Z,2456.00
2019-03-26T07:33:45.535Z,2456.00
2019-03-26T07:34:45.524Z,2460.00
2019-03-26T07:35:45.511Z,2508.00
2019-03-26T07:36:45.506Z,2508.00
2019-03-26T07:37:45.970Z,2592.00
2019-03-26T07:38:45.488Z,2660.00
2019-03-26T07:39:45.483Z,2576.00
2019-03-26T07:40:45.472Z,2448.00
2019-03-26T07:41:45.461Z,2500.00
2019-03-26T07:42:45.461Z,2604.00
2019-03-26T07:43:45.445Z,2676.00
2019-03-26T07:44:45.700Z,2876.00
2019-03-26T07:45:45.430Z,3116.00
2019-03-26T07:46:45.422Z,3180.00
2019-03-26T07:47:45.411Z,3388.00
2019-03-26T07:48:45.418Z,3408.00
2019-03-26T07:49:45.395Z,3328.00
2019-03-26T07:50:45.384Z,3536.00
2019-03-26T07:51:45.376Z,3696.00
2019-03-26T07:52:45.374Z,3592.00
2019-03-26T07:53:45.362Z,3252.00
2019-03-26T07:54:45.355Z,3308.00
2019-03-26T07:55:45.338Z,3692.00
2019-03-26T07:56:45.336Z,3852.00
2019-03-26T07:57:45.328Z,3868.00
2019-03-26T07:58:45.318Z,3636.00
2019-03-26T07:59:45.311Z,3440.00
2019-03-26T08:00:45.307Z,3408.00
2019-03-26T08:01:45.305Z,3584.00
2019-03-26T08:02:45.287Z,3644.00
2019-03-26T08:03:45.282Z,4016.00
2019-03-26T08:04:45.274Z,4000.00
2019-03-26T08:05:45.267Z,4320.00
2019-03-26T08:06:45.262Z,4400.00
2019-03-26T08:07:57.475Z,4000.00
2019-03-26T08:08:45.240Z,3608.00
2019-03-26T08:09:45.230Z,3764.00
2019-03-26T08:10:45.222Z,3344.00
2019-03-26T08:11:45.215Z,2524.00
2019-03-26T08:12:45.224Z,2100.00
2019-03-26T08:13:45.232Z,1984.00
2019-03-26T08:14:45.202Z,1980.00
2019-03-26T08:15:45.184Z,1872.00
2019-03-26T08:16:45.199Z,1588.00
2019-03-26T08:17:45.497Z,1348.00
2019-03-26T08:18:45.176Z,1316.00
2019-03-26T08:19:45.158Z,1380.00
2019-03-26T08:20:45.149Z,1716.00
2019-03-26T08:21:45.149Z,2168.00
2019-03-26T08:22:45.133Z,2528.00
2019-03-26T08:23:45.129Z,2656.00
2019-03-26T08:24:45.118Z,2460.00
2019-03-26T08:25:45.109Z,2324.00
2019-03-26T08:26:45.104Z,2228.00
2019-03-26T08:27:45.093Z,2472.00
2019-03-26T08:28:45.087Z,2720.00
2019-03-26T08:29:45.075Z,3052.00
2019-03-26T08:30:45.065Z,3532.00
2019-03-26T08:31:45.060Z,3812.00
2019-03-26T08:32:45.053Z,3840.00
2019-03-26T08:33:45.051Z,3308.00
2019-03-26T08:34:46.714Z,2428.00
2019-03-26T08:35:45.030Z,2060.00
2019-03-26T08:36:45.024Z,2148.00
2019-03-26T08:37:45.019Z,2556.00
2019-03-26T08:38:45.006Z,3020.00
2019-03-26T08:39:44.993Z,3400.00
2019-03-26T08:40:44.995Z,3592.00
2019-03-26T08:41:44.992Z,3760.00
2019-03-26T08:42:44.973Z,3900.00
2019-03-26T08:43:44.966Z,3912.00
2019-03-26T08:44:44.958Z,3668.00
2019-03-26T08:45:44.947Z,3640.00
2019-03-26T08:46:46.350Z,3700.00
2019-03-26T08:47:44.935Z,3704.00
2019-03-26T08:48:44.930Z,3640.00
2019-03-26T08:49:44.921Z,3480.00
2019-03-26T08:50:44.910Z,3152.00
2019-03-26T08:51:44.899Z,2952.00
2019-03-26T08:52:44.891Z,3296.00
2019-03-26T08:53:44.884Z,3680.00
2019-03-26T08:54:44.873Z,3628.00
2019-03-26T08:55:44.873Z,3568.00
2019-03-26T08:56:44.862Z,3688.00
2019-03-26T08:57:44.854Z,3536.00
2019-03-26T08:58:44.849Z,3520.00
2019-03-26T08:59:44.849Z,3728.00
2019-03-26T09:00:44.849Z,4004.00
2019-03-26T09:01:44.825Z,4172.00
2019-03-26T09:02:44.825Z,4252.00
2019-03-26T09:03:44.811Z,4176.00
2019-03-26T09:04:44.805Z,4036.00
2019-03-26T09:05:44.796Z,3952.00
2019-03-26T09:06:44.780Z,3940.00
2019-03-26T09:07:44.787Z,3864.00
2019-03-26T09:08:44.774Z,3860.00
2019-03-26T09:09:44.766Z,3984.00
2019-03-26T09:10:51.556Z,4232.00
2019-03-26T09:11:44.753Z,4460.00
2019-03-26T09:12:44.745Z,4780.00
2019-03-26T09:13:44.729Z,5180.00
2019-03-26T09:14:44.730Z,5568.00
2019-03-26T09:15:44.719Z,5816.00
2019-03-26T09:16:44.716Z,5892.00
2019-03-26T09:17:44.963Z,5860.00
2019-03-26T09:18:44.703Z,5968.00
2019-03-26T09:19:44.692Z,5888.00
2019-03-26T09:20:44.683Z,5748.00
2019-03-26T09:21:44.685Z,5752.00
2019-03-26T09:22:44.670Z,5896.00
2019-03-26T09:23:44.664Z,6048.00
2019-03-26T09:24:44.683Z,6160.00
2019-03-26T09:25:44.654Z,6148.00
2019-03-26T09:26:44.645Z,6136.00
2019-03-26T09:27:44.641Z,6116.00
2019-03-26T09:28:47.665Z,6024.00
2019-03-26T09:29:44.628Z,5952.00
2019-03-26T09:30:44.622Z,5940.00
2019-03-26T09:31:44.621Z,5968.00
2019-03-26T09:32:44.606Z,6080.00
2019-03-26T09:33:44.602Z,6084.00
2019-03-26T09:34:44.602Z,5928.00
2019-03-26T09:35:44.591Z,5912.00
2019-03-26T09:36:44.647Z,5724.00
2019-03-26T09:37:44.576Z,5212.00
2019-03-26T09:38:44.570Z,4808.00
2019-03-26T09:39:44.571Z,4568.00
2019-03-26T09:40:44.563Z,4664.00
2019-03-26T09:41:44.551Z,4796.00
2019-03-26T09:42:44.551Z,4792.00
2019-03-26T09:43:44.536Z,4664.00
2019-03-26T09:44:44.538Z,4444.00
2019-03-26T09:45:44.543Z,4232.00
2019-03-26T09:46:44.521Z,4356.00
2019-03-26T09:47:44.521Z,4496.00
2019-03-26T09:48:44.517Z,4264.00
2019-03-26T09:49:44.510Z,4268.00
2019-03-26T09:50:44.507Z,4456.00
2019-03-26T09:51:44.500Z,4756.00
2019-03-26T09:52:44.491Z,4944.00
2019-03-26T09:53:44.492Z,4972.00
2019-03-26T09:54:44.490Z,5092.00
2019-03-26T09:55:44.476Z,5036.00
2019-03-26T09:56:44.475Z,5032.00
2019-03-26T09:57:44.467Z,5068.00
2019-03-26T09:58:44.459Z,5504.00
2019-03-26T09:59:44.457Z,5940.00
2019-03-26T10:00:44.481Z,6436.00
2019-03-26T10:01:44.441Z,6212.00
2019-03-26T10:02:44.448Z,6092.00
2019-03-26T10:03:44.440Z,6072.00
2019-03-26T10:04:44.430Z,6140.00
2019-03-26T10:05:44.430Z,6244.00
2019-03-26T10:06:44.417Z,6596.00
2019-03-26T10:07:44.421Z,7060.00
2019-03-26T10:08:52.465Z,7088.00
2019-03-26T10:09:44.404Z,7176.00
2019-03-26T10:10:44.400Z,6976.00
2019-03-26T10:11:44.398Z,6768.00
2019-03-26T10:12:44.399Z,6472.00
2019-03-26T10:13:44.386Z,6404.00
2019-03-26T10:14:44.386Z,5992.00
2019-03-26T10:15:44.373Z,5412.00
2019-03-26T10:16:44.369Z,5052.00
2019-03-26T10:17:44.365Z,4432.00
2019-03-26T10:18:44.359Z,4060.00
2019-03-26T10:19:44.356Z,4052.00
2019-03-26T10:20:44.353Z,4200.00
2019-03-26T10:21:44.344Z,4124.00
2019-03-26T10:22:44.340Z,3752.00
2019-03-26T10:23:44.336Z,3104.00
2019-03-26T10:24:44.336Z,2632.00
2019-03-26T10:25:44.329Z,2352.00
2019-03-26T10:26:44.316Z,2160.00
2019-03-26T10:27:44.313Z,1992.00
2019-03-26T10:28:44.311Z,1980.00
2019-03-26T10:29:44.302Z,1980.00
2019-03-26T10:30:44.297Z,1980.00
2019-03-26T10:31:44.297Z,1964.00
2019-03-26T10:32:44.294Z,1992.00
2019-03-26T10:33:44.279Z,2000.00
2019-03-26T10:34:44.279Z,1988.00
2019-03-26T10:35:44.268Z,1900.00
2019-03-26T10:36:44.261Z,1908.00
2019-03-26T10:37:44.253Z,1984.00
2019-03-26T10:38:44.253Z,2184.00
2019-03-26T10:39:44.245Z,2648.00
2019-03-26T10:40:44.239Z,3496.00
2019-03-26T10:41:44.291Z,4348.00
2019-03-26T10:42:44.224Z,5220.00
2019-03-26T10:43:44.219Z,5860.00
2019-03-26T10:44:44.212Z,6312.00
2019-03-26T10:45:44.213Z,6632.00
2019-03-26T10:46:44.660Z,6524.00
2019-03-26T10:47:44.190Z,6548.00
2019-03-26T10:48:44.182Z,6472.00
2019-03-26T10:49:44.177Z,6364.00
2019-03-26T10:50:44.167Z,6024.00
2019-03-26T10:51:44.166Z,5580.00
2019-03-26T10:52:44.158Z,5408.00
2019-03-26T10:53:44.159Z,5552.00
2019-03-26T10:54:44.155Z,5740.00
2019-03-26T10:55:44.145Z,6132.00
2019-03-26T10:56:44.136Z,6644.00
2019-03-26T10:57:44.129Z,7048.00
2019-03-26T10:58:44.126Z,7284.00
2019-03-26T10:59:44.114Z,7692.00
2019-03-26T11:00:44.109Z,7856.00
2019-03-26T11:01:44.101Z,7464.00
2019-03-26T11:02:44.090Z,7232.00
2019-03-26T11:03:44.097Z,7084.00
2019-03-26T11:04:44.088Z,7276.00
2019-03-26T11:05:44.083Z,7272.00
2019-03-26T11:06:44.084Z,6996.00
2019-03-26T11:07:44.073Z,6636.00
2019-03-26T11:08:45.305Z,6504.00
2019-03-26T11:09:44.057Z,6168.00
2019-03-26T11:10:44.052Z,6024.00
2019-03-26T11:11:44.045Z,5820.00
2019-03-26T11:12:44.044Z,5432.00
2019-03-26T11:13:44.036Z,5220.00
2019-03-26T11:14:44.028Z,5300.00
2019-03-26T11:15:44.028Z,5216.00
2019-03-26T11:16:44.044Z,4888.00
2019-03-26T11:17:44.019Z,4832.00
2019-03-26T11:18:44.009Z,4784.00
2019-03-26T11:19:46.441Z,5000.00
2019-03-26T11:20:43.999Z,5740.00
2019-03-26T11:21:43.985Z,6204.00
2019-03-26T11:22:43.983Z,6116.00
2019-03-26T11:23:43.983Z,5648.00
2019-03-26T11:24:43.979Z,5396.00
2019-03-26T11:25:43.971Z,5408.00
2019-03-26T11:26:43.967Z,5396.00
2019-03-26T11:27:43.967Z,5456.00
2019-03-26T11:28:43.952Z,5188.00
2019-03-26T11:29:43.961Z,4848.00
2019-03-26T11:30:43.941Z,4356.00
2019-03-26T11:31:43.935Z,4064.00
2019-03-26T11:32:43.932Z,4084.00
2019-03-26T11:33:43.926Z,4128.00
2019-03-26T11:34:43.919Z,3896.00
2019-03-26T11:35:43.921Z,4004.00
2019-03-26T11:36:43.911Z,3940.00
2019-03-26T11:37:43.906Z,4296.00
2019-03-26T11:38:43.899Z,4532.00
2019-03-26T11:39:43.897Z,5076.00
2019-03-26T11:40:43.888Z,5380.00
2019-03-26T11:41:43.881Z,5632.00
2019-03-26T11:42:43.880Z,6224.00
2019-03-26T11:43:43.874Z,6984.00
2019-03-26T11:44:43.869Z,7480.00
2019-03-26T11:45:43.859Z,6676.00
2019-03-26T11:46:43.855Z,5996.00
2019-03-26T11:47:43.851Z,5216.00
2019-03-26T11:48:43.843Z,4700.00
2019-03-26T11:49:43.836Z,4920.00
2019-03-26T11:50:43.834Z,6320.00
2019-03-26T11:51:43.829Z,7588.00
2019-03-26T11:52:43.826Z,8084.00
2019-03-26T11:53:43.812Z,8260.00
2019-03-26T11:54:43.810Z,8612.00
2019-03-26T11:55:43.807Z,8308.00
2019-03-26T11:56:43.804Z,7288.00
2019-03-26T11:57:43.801Z,5900.00
2019-03-26T11:58:43.790Z,4856.00
2019-03-26T11:59:43.784Z,4400.00
2019-03-26T12:00:43.780Z,4080.00
2019-03-26T12:01:43.779Z,3788.00
2019-03-26T12:02:43.785Z,3404.00
2019-03-26T12:03:43.765Z,3072.00
2019-03-26T12:04:43.755Z,2980.00
2019-03-26T12:05:43.750Z,2972.00
2019-03-26T12:06:43.760Z,2976.00
2019-03-26T12:07:43.747Z,2996.00
2019-03-26T12:08:43.734Z,2976.00
2019-03-26T12:09:46.398Z,3036.00
2019-03-26T12:10:43.725Z,3228.00
2019-03-26T12:11:43.716Z,3480.00
2019-03-26T12:12:43.710Z,3640.00
2019-03-26T12:13:43.705Z,3856.00
2019-03-26T12:14:43.700Z,4000.00
2019-03-26T12:15:43.697Z,3996.00
2019-03-26T12:16:43.692Z,3948.00
2019-03-26T12:17:43.688Z,4180.00
2019-03-26T12:18:43.675Z,4400.00
2019-03-26T12:19:43.674Z,4476.00
2019-03-26T12:20:43.677Z,4208.00
2019-03-26T12:21:43.657Z,4240.00
2019-03-26T12:22:43.658Z,4400.00
2019-03-26T12:23:43.643Z,5052.00
2019-03-26T12:24:43.647Z,6012.00
2019-03-26T12:25:43.627Z,6744.00
2019-03-26T12:26:43.622Z,6752.00
2019-03-26T12:27:43.620Z,6640.00
2019-03-26T12:28:43.610Z,6748.00
2019-03-26T12:29:43.618Z,6460.00
2019-03-26T12:30:43.597Z,6436.00
2019-03-26T12:31:43.609Z,6752.00
2019-03-26T12:32:43.589Z,7020.00
2019-03-26T12:33:43.591Z,6936.00
2019-03-26T12:34:43.576Z,6924.00
2019-03-26T12:35:43.568Z,6888.00
2019-03-26T12:36:43.558Z,6756.00
2019-03-26T12:37:43.558Z,6620.00
2019-03-26T12:38:43.551Z,6340.00
2019-03-26T12:39:44.330Z,6168.00
2019-03-26T12:40:43.544Z,6344.00
2019-03-26T12:41:43.535Z,6432.00
2019-03-26T12:42:43.526Z,6572.00
2019-03-26T12:43:43.527Z,6632.00
2019-03-26T12:44:43.517Z,6668.00
2019-03-26T12:45:43.512Z,6720.00
2019-03-26T12:46:43.522Z,6688.00
2019-03-26T12:47:43.504Z,6552.00
2019-03-26T12:48:43.499Z,6316.00
2019-03-26T12:49:43.490Z,6096.00
2019-03-26T12:50:43.488Z,5940.00